Time;durP1;ratioP1;P1;durP2;ratioP2;P2;SDS_P1;SDS_P2;PMS_P1;PMS_P2;Temp;Humidity;BMP_temperature;BMP_pressure;BME280_temperature;BME280_humidity;BME280_pressure;Samples;Min_cycle;Max_cycle;Signal;HPM_P1;HPM_P2
2022/01/03 00:00:31;;;;;;;9.00;2.33;;;8.90;99.90;;;;;;4985458;28;20044;-82
2022/01/03 00:02:59;;;;;;;8.48;2.20;;;9.00;99.90;;;;;;5001792;28;20508;-83
2022/01/03 00:05:26;;;;;;;8.38;2.47;;;8.90;99.90;;;;;;5003411;28;20098;-83
2022/01/03 00:07:52;;;;;;;12.30;2.40;;;9.00;99.90;;;;;;5037195;28;20051;-83
2022/01/03 00:10:18;;;;;;;12.25;2.70;;;9.00;99.90;;;;;;5036462;28;20045;-83
2022/01/03 00:12:45;;;;;;;8.50;2.70;;;9.10;99.90;;;;;;5037634;28;20555;-83
2022/01/03 00:15:13;;;;;;;11.63;2.60;;;9.10;99.90;;;;;;5037289;28;20579;-83
2022/01/03 00:17:40;;;;;;;11.30;2.65;;;9.10;99.90;;;;;;5037304;28;20049;-83
2022/01/03 00:20:07;;;;;;;16.70;2.67;;;9.10;99.90;;;;;;5020455;28;20048;-83
2022/01/03 00:22:47;;;;;;;14.50;2.88;;;9.10;99.90;;;;;;5037196;28;20045;-83
2022/01/03 00:25:17;;;;;;;15.38;3.00;;;9.10;99.90;;;;;;5019927;28;20048;-83
2022/01/03 00:28:04;;;;;;;14.65;2.85;;;9.20;99.90;;;;;;5036713;28;20056;-83
2022/01/03 00:30:34;;;;;;;10.65;2.80;;;9.20;99.90;;;;;;5020427;28;20052;-83
2022/01/03 00:33:02;;;;;;;15.20;2.70;;;9.30;99.90;;;;;;5020499;28;20044;-83
2022/01/03 00:35:29;;;;;;;15.10;3.20;;;9.20;99.90;;;;;;5020312;28;20098;-83
2022/01/03 00:37:59;;;;;;;15.25;3.28;;;9.30;99.90;;;;;;5020835;28;20047;-83
2022/01/03 00:40:25;;;;;;;10.73;3.00;;;9.30;99.90;;;;;;5035913;28;20051;-82
2022/01/03 00:42:51;;;;;;;20.75;3.78;;;9.30;99.90;;;;;;5020638;28;20395;-82
2022/01/03 00:45:17;;;;;;;18.30;3.72;;;9.40;99.90;;;;;;5036300;28;20128;-82
2022/01/03 00:47:45;;;;;;;22.00;4.18;;;9.40;99.90;;;;;;5036692;28;20083;-82
2022/01/03 00:50:15;;;;;;;17.60;3.72;;;9.40;99.90;;;;;;5036477;28;20041;-82
2022/01/03 00:52:41;;;;;;;18.17;3.92;;;9.50;99.90;;;;;;5020484;28;20091;-82
2022/01/03 00:55:08;;;;;;;19.52;4.03;;;9.50;99.90;;;;;;5036375;28;20045;-82
2022/01/03 00:57:59;;;;;;;19.15;3.65;;;9.50;99.90;;;;;;5019646;28;20052;-82
2022/01/03 01:00:27;;;;;;;18.52;3.80;;;9.50;99.90;;;;;;5019663;28;20037;-82
2022/01/03 01:03:16;;;;;;;19.55;3.53;;;9.60;99.90;;;;;;5020357;28;20045;-82
2022/01/03 01:05:45;;;;;;;21.08;3.80;;;9.60;99.90;;;;;;5033274;28;20053;-82
2022/01/03 01:08:12;;;;;;;17.50;3.38;;;9.60;99.90;;;;;;5036115;28;20037;-82
2022/01/03 01:10:39;;;;;;;20.70;3.65;;;9.70;99.90;;;;;;5001992;28;20516;-83
2022/01/03 01:13:09;;;;;;;23.85;4.10;;;9.70;99.90;;;;;;5020384;28;20476;-82
2022/01/03 01:15:36;;;;;;;18.08;3.65;;;9.70;99.90;;;;;;5036025;28;20041;-82
2022/01/03 01:18:04;;;;;;;15.50;3.55;;;9.70;99.90;;;;;;5035994;28;20454;-82
2022/01/03 01:20:31;;;;;;;21.60;3.80;;;9.70;99.90;;;;;;5020055;28;20044;-82
2022/01/03 01:22:57;;;;;;;16.92;3.15;;;9.70;99.90;;;;;;5003295;28;20037;-82
2022/01/03 01:27:46;;;;;;;18.05;3.40;;;9.70;99.90;;;;;;5017658;28;20072;-82
2022/01/03 01:28:14;;;;;;;21.95;3.53;;;9.70;99.90;;;;;;5036002;28;20052;-82
2022/01/03 01:30:41;;;;;;;19.73;3.45;;;9.70;99.90;;;;;;5035636;28;20076;-82
2022/01/03 01:33:08;;;;;;;20.75;3.47;;;9.70;99.90;;;;;;5035917;28;20040;-82
2022/01/03 01:35:46;;;;;;;16.38;3.35;;;9.70;99.90;;;;;;5019541;28;20136;-82
2022/01/03 01:38:15;;;;;;;22.27;3.65;;;9.70;99.90;;;;;;5035797;28;20060;-83
2022/01/03 01:40:51;;;;;;;17.15;3.58;;;9.80;99.90;;;;;;5034921;28;20040;-82
2022/01/03 01:43:24;;;;;;;22.08;3.72;;;9.80;99.90;;;;;;5019329;28;20106;-82
2022/01/03 01:45:52;;;;;;;17.85;3.60;;;9.80;99.90;;;;;;5035249;28;20389;-82
2022/01/03 01:48:19;;;;;;;23.10;3.97;;;9.80;99.90;;;;;;5019192;28;20044;-82
2022/01/03 01:50:50;;;;;;;15.90;3.05;;;9.80;99.90;;;;;;5002573;28;20075;-82
2022/01/03 01:53:22;;;;;;;19.55;4.15;;;9.80;99.90;;;;;;5035681;28;20086;-82
2022/01/03 01:55:52;;;;;;;24.38;4.10;;;9.80;99.90;;;;;;5034606;28;20033;-82
2022/01/03 01:58:34;;;;;;;22.48;3.72;;;9.80;99.90;;;;;;5019401;28;20602;-82
2022/01/03 02:01:05;;;;;;;19.33;3.83;;;9.90;99.90;;;;;;5035192;28;20039;-82
2022/01/03 02:03:37;;;;;;;23.05;3.65;;;9.80;99.90;;;;;;5035636;28;20129;-82
2022/01/03 02:06:08;;;;;;;;;;;9.80;99.90;;;;;;5035522;28;20044;-82
2022/01/03 02:08:44;;;;;;;17.83;3.17;;;9.80;99.90;;;;;;5018991;28;19946;-82
2022/01/03 02:11:13;;;;;;;17.58;3.80;;;9.90;99.90;;;;;;5034272;28;20049;-82
2022/01/03 02:13:41;;;;;;;19.40;3.75;;;9.90;99.90;;;;;;5035295;28;20120;-82
2022/01/03 02:16:08;;;;;;;22.90;3.70;;;9.80;99.90;;;;;;5018395;28;20048;-82
2022/01/03 02:18:33;;;;;;;22.38;3.53;;;9.90;99.90;;;;;;5018777;28;20127;-81
2022/01/03 02:21:02;;;;;;;19.20;3.00;;;9.90;99.90;;;;;;5002205;28;20504;-82
2022/01/03 02:23:28;;;;;;;23.80;3.63;;;9.90;99.90;;;;;;5018720;28;20041;-82
2022/01/03 02:25:54;;;;;;;18.75;3.67;;;9.90;99.90;;;;;;5050390;28;20052;-82
2022/01/03 02:28:22;;;;;;;19.95;3.70;;;9.90;99.90;;;;;;5035093;28;20045;-82
2022/01/03 02:30:49;;;;;;;21.02;4.00;;;9.90;99.90;;;;;;5034825;28;20044;-82
2022/01/03 02:33:15;;;;;;;21.02;3.63;;;9.90;99.90;;;;;;5035334;28;20079;-82
2022/01/03 02:35:43;;;;;;;24.92;3.78;;;9.90;99.90;;;;;;5018418;28;20098;-82
2022/01/03 02:38:09;;;;;;;20.38;3.70;;;9.90;99.90;;;;;;5018304;28;20041;-82
2022/01/03 02:40:35;;;;;;;21.85;3.67;;;9.80;99.90;;;;;;5017523;28;20047;-82
2022/01/03 02:43:01;;;;;;;19.63;3.67;;;9.90;99.90;;;;;;5018507;28;20044;-82
2022/01/03 02:45:27;;;;;;;18.02;3.70;;;9.90;99.90;;;;;;5018286;28;20044;-82
2022/01/03 02:47:56;;;;;;;21.73;3.63;;;9.90;99.90;;;;;;5018734;28;20037;-82
2022/01/03 02:50:24;;;;;;;19.60;3.38;;;9.90;99.90;;;;;;5034627;28;20037;-82
2022/01/03 02:52:50;;;;;;;15.48;3.38;;;9.90;99.90;;;;;;5018368;28;20098;-82
2022/01/03 02:55:18;;;;;;;22.30;3.40;;;9.90;99.90;;;;;;5017442;28;20049;-82
2022/01/03 02:57:49;;;;;;;27.10;4.00;;;9.90;99.90;;;;;;5018240;28;20099;-82
2022/01/03 03:00:19;;;;;;;23.52;3.75;;;9.80;99.90;;;;;;5034752;28;20049;-82
2022/01/03 03:02:44;;;;;;;19.30;3.50;;;9.80;99.90;;;;;;5018477;28;20037;-82
2022/01/03 03:05:11;;;;;;;26.38;4.18;;;9.90;99.90;;;;;;5034920;28;20587;-82
2022/01/03 03:07:38;;;;;;;22.67;3.65;;;9.90;99.90;;;;;;5012164;28;20048;-82
2022/01/03 03:10:13;;;;;;;23.88;3.50;;;9.80;99.90;;;;;;5018046;28;20109;-82
2022/01/03 03:12:39;;;;;;;23.83;4.18;;;9.70;99.90;;;;;;5018094;28;20041;-82
2022/01/03 03:15:08;;;;;;;18.23;3.40;;;9.80;99.90;;;;;;5034699;28;20136;-82
2022/01/03 03:17:34;;;;;;;18.70;3.70;;;9.80;99.90;;;;;;5034500;28;20045;-82
2022/01/03 03:20:03;;;;;;;19.90;3.80;;;9.70;99.90;;;;;;5001709;28;20045;-82
2022/01/03 03:22:30;;;;;;;19.65;3.67;;;9.80;99.90;;;;;;5034844;28;20080;-82
2022/01/03 03:25:14;;;;;;;21.23;3.72;;;9.80;99.90;;;;;;5034525;28;20123;-82
2022/01/03 03:27:47;;;;;;;26.02;3.97;;;9.70;99.90;;;;;;5003666;28;20050;-82
2022/01/03 03:30:22;;;;;;;20.25;4.10;;;9.80;99.90;;;;;;5014495;28;20042;-82
2022/01/03 03:32:51;;;;;;;22.95;3.67;;;9.80;99.90;;;;;;5015036;28;20397;-82
2022/01/03 03:35:17;;;;;;;24.85;3.92;;;9.70;99.90;;;;;;5018025;28;20385;-82
2022/01/03 03:37:43;;;;;;;19.13;3.80;;;9.70;99.90;;;;;;5018620;28;20038;-82
2022/01/03 03:40:10;;;;;;;19.90;4.05;;;9.60;99.90;;;;;;5017591;28;20049;-82
2022/01/03 03:42:35;;;;;;;22.35;3.55;;;9.60;99.90;;;;;;5017703;28;20128;-82
2022/01/03 03:45:03;;;;;;;22.15;3.92;;;9.60;99.90;;;;;;5002034;28;20136;-82
2022/01/03 03:47:29;;;;;;;23.05;3.90;;;9.60;99.90;;;;;;5001591;28;20052;-82
2022/01/03 03:49:55;;;;;;;21.30;4.00;;;9.60;99.90;;;;;;5002011;28;20033;-82
2022/01/03 03:52:21;;;;;;;21.85;4.10;;;9.60;99.90;;;;;;4985468;28;20045;-82
2022/01/03 03:54:46;;;;;;;22.85;4.15;;;9.60;99.90;;;;;;5018077;28;20120;-82
2022/01/03 03:57:12;;;;;;;28.77;3.85;;;9.60;99.90;;;;;;5017221;28;20128;-82
2022/01/03 03:59:38;;;;;;;21.70;4.20;;;9.60;99.90;;;;;;5001812;28;20085;-82
2022/01/03 04:02:05;;;;;;;27.60;4.60;;;9.60;99.90;;;;;;4985071;28;20041;-82
2022/01/03 04:04:31;;;;;;;21.98;4.10;;;9.50;99.90;;;;;;5017829;28;20041;-82
2022/01/03 04:06:57;;;;;;;22.73;4.15;;;9.50;99.90;;;;;;5001085;28;20055;-82
2022/01/03 04:09:23;;;;;;;20.65;3.88;;;9.50;99.90;;;;;;4985165;28;20556;-82
2022/01/03 04:11:50;;;;;;;21.98;3.78;;;9.60;99.90;;;;;;4984233;28;20446;-82
2022/01/03 04:14:15;;;;;;;24.42;4.35;;;9.50;99.90;;;;;;5001387;28;20554;-82
2022/01/03 04:16:42;;;;;;;22.35;3.97;;;9.60;99.90;;;;;;5001333;28;20044;-81
2022/01/03 04:19:07;;;;;;;23.67;4.13;;;9.50;99.90;;;;;;5017725;28;20397;-81
2022/01/03 04:21:33;;;;;;;23.08;4.22;;;9.50;99.90;;;;;;5000695;28;20041;-81
2022/01/03 04:23:59;;;;;;;24.75;4.07;;;9.50;99.90;;;;;;4985380;28;20454;-81
2022/01/03 04:26:25;;;;;;;22.33;4.40;;;9.50;99.90;;;;;;4986368;28;20042;-81
2022/01/03 04:28:51;;;;;;;23.55;3.92;;;9.50;99.90;;;;;;5020724;28;20045;-81
2022/01/03 04:31:16;;;;;;;26.67;3.90;;;9.50;99.90;;;;;;5020364;28;20033;-81
2022/01/03 04:33:42;;;;;;;22.50;4.07;;;9.40;99.90;;;;;;5004522;28;20087;-81
2022/01/03 04:36:12;;;;;;;23.25;4.38;;;9.40;99.90;;;;;;5016807;28;20041;-82
2022/01/03 04:38:38;;;;;;;24.05;4.20;;;9.40;99.90;;;;;;5033970;28;20081;-82
2022/01/03 04:41:04;;;;;;;26.67;4.35;;;9.50;99.90;;;;;;4999718;28;20072;-82
2022/01/03 04:43:30;;;;;;;27.88;4.32;;;9.50;99.90;;;;;;5000700;28;20132;-82
2022/01/03 04:45:56;;;;;;;25.40;4.35;;;9.60;99.90;;;;;;5000531;28;20037;-82
2022/01/03 04:48:22;;;;;;;23.00;4.03;;;9.60;99.90;;;;;;5016958;28;20182;-82
2022/01/03 04:50:49;;;;;;;22.98;4.45;;;9.60;99.90;;;;;;5033447;28;20548;-82
2022/01/03 04:53:15;;;;;;;23.63;4.32;;;9.60;99.90;;;;;;5033926;28;20120;-81
2022/01/03 04:55:41;;;;;;;25.42;4.60;;;9.60;99.90;;;;;;4999514;28;20037;-81
2022/01/03 04:58:08;;;;;;;21.02;4.00;;;9.70;99.90;;;;;;5000354;28;20080;-81
2022/01/03 05:00:34;;;;;;;29.48;4.65;;;9.70;99.90;;;;;;5032947;28;20115;-81
2022/01/03 05:03:00;;;;;;;18.85;3.95;;;9.70;99.90;;;;;;5033185;28;20038;-81
2022/01/03 05:05:26;;;;;;;26.10;4.68;;;9.70;99.90;;;;;;5018248;28;20497;-81
2022/01/03 05:07:51;;;;;;;24.20;4.97;;;9.70;99.90;;;;;;5036291;28;20091;-81
2022/01/03 05:10:17;;;;;;;27.20;4.47;;;9.70;99.90;;;;;;5019140;28;20037;-81
2022/01/03 05:12:43;;;;;;;24.83;4.70;;;9.70;99.90;;;;;;5020134;28;20043;-82
2022/01/03 05:15:09;;;;;;;23.40;4.13;;;9.70;99.90;;;;;;5019674;28;20098;-82
2022/01/03 05:17:34;;;;;;;23.40;4.57;;;9.70;99.90;;;;;;5019886;28;20102;-82
2022/01/03 05:20:00;;;;;;;27.95;4.70;;;9.70;99.90;;;;;;5003550;28;20036;-82
2022/01/03 05:22:26;;;;;;;23.33;4.35;;;9.70;99.90;;;;;;5019482;28;20128;-82
2022/01/03 05:24:51;;;;;;;29.58;5.30;;;9.70;99.90;;;;;;5019623;28;20083;-82
2022/01/03 05:27:18;;;;;;;22.90;4.57;;;9.60;99.90;;;;;;5034881;28;20500;-82
2022/01/03 05:29:44;;;;;;;29.20;5.40;;;9.60;99.90;;;;;;5019776;28;20396;-82
2022/01/03 05:32:10;;;;;;;29.50;5.03;;;9.70;99.90;;;;;;5035596;28;20079;-82
2022/01/03 05:34:36;;;;;;;30.23;4.90;;;9.70;99.90;;;;;;5019418;28;20044;-82
2022/01/03 05:37:02;;;;;;;27.52;4.90;;;9.70;99.90;;;;;;5019443;28;20485;-82
2022/01/03 05:39:28;;;;;;;27.70;5.10;;;9.70;99.90;;;;;;5017818;28;20087;-82
2022/01/03 05:41:53;;;;;;;28.70;5.22;;;9.70;99.90;;;;;;4982286;28;20473;-82
2022/01/03 05:44:19;;;;;;;29.70;5.20;;;9.70;99.90;;;;;;4999699;28;20045;-82
2022/01/03 05:46:45;;;;;;;27.45;4.93;;;9.70;99.90;;;;;;5015564;28;20566;-82
2022/01/03 05:49:11;;;;;;;28.05;5.15;;;9.70;99.90;;;;;;5014325;28;20491;-82
2022/01/03 05:51:37;;;;;;;26.25;4.80;;;9.60;99.90;;;;;;5017791;28;20068;-82
2022/01/03 05:54:04;;;;;;;26.42;4.82;;;9.60;99.90;;;;;;5005361;28;20047;-82
2022/01/03 05:56:30;;;;;;;27.27;4.95;;;9.70;99.90;;;;;;5034254;28;20116;-82
2022/01/03 05:58:56;;;;;;;30.20;5.18;;;9.70;99.90;;;;;;5002763;28;20061;-82
2022/01/03 06:01:23;;;;;;;21.92;4.50;;;9.70;99.90;;;;;;5016056;28;20041;-81
2022/01/03 06:03:58;;;;;;;25.17;4.95;;;9.70;99.90;;;;;;5014996;28;20045;-81
2022/01/03 06:06:53;;;;;;;21.77;4.18;;;9.60;99.90;;;;;;5015391;28;20132;-82
2022/01/03 06:09:10;;;;;;;25.75;4.70;;;9.60;99.90;;;;;;5015439;28;20096;-82
2022/01/03 06:11:36;;;;;;;25.80;4.38;;;9.70;99.90;;;;;;5024188;28;20464;-82
2022/01/03 06:14:02;;;;;;;25.77;4.82;;;9.60;99.90;;;;;;5033806;28;20037;-81
2022/01/03 06:16:28;;;;;;;26.92;4.97;;;9.70;99.90;;;;;;5018110;28;20411;-83
2022/01/03 06:18:54;;;;;;;23.40;4.38;;;9.60;99.90;;;;;;5034689;28;20044;-82
2022/01/03 06:21:20;;;;;;;25.63;4.90;;;9.50;99.90;;;;;;5034692;28;20041;-82
2022/01/03 06:23:46;;;;;;;24.40;4.65;;;9.60;99.90;;;;;;5035225;28;20040;-82
2022/01/03 06:26:12;;;;;;;26.05;5.30;;;9.50;99.90;;;;;;5017423;28;20056;-81
2022/01/03 06:28:38;;;;;;;28.17;5.30;;;9.50;99.90;;;;;;5035233;28;20042;-81
2022/01/03 06:31:03;;;;;;;30.58;5.10;;;9.50;99.90;;;;;;5034776;28;20040;-82
2022/01/03 06:33:29;;;;;;;28.98;5.00;;;9.50;99.90;;;;;;5041902;28;20119;-81
2022/01/03 06:35:55;;;;;;;31.50;5.10;;;9.40;99.90;;;;;;5000956;28;20496;-82
2022/01/03 06:38:21;;;;;;;30.25;5.13;;;9.40;99.90;;;;;;5016636;28;20037;-82
2022/01/03 06:40:47;;;;;;;29.75;5.13;;;9.40;99.90;;;;;;4999195;28;20095;-82
2022/01/03 06:43:12;;;;;;;31.48;5.30;;;9.40;99.90;;;;;;5016631;28;20033;-82
2022/01/03 06:45:38;;;;;;;27.17;5.40;;;9.40;99.90;;;;;;5017765;28;20068;-82
2022/01/03 06:48:04;;;;;;;28.30;4.88;;;9.30;99.90;;;;;;5018353;28;20420;-82
2022/01/03 06:50:31;;;;;;;31.02;5.72;;;9.30;99.90;;;;;;5034838;28;20084;-82
2022/01/03 06:52:57;;;;;;;33.05;5.55;;;9.30;99.90;;;;;;5050370;28;20116;-82
2022/01/03 06:55:23;;;;;;;32.20;5.20;;;9.30;99.90;;;;;;5032060;28;20049;-82
2022/01/03 06:57:49;;;;;;;31.58;5.40;;;9.20;99.90;;;;;;5017639;28;20040;-82
2022/01/03 07:00:16;;;;;;;31.83;5.60;;;9.20;99.90;;;;;;5001775;28;20189;-82
2022/01/03 07:02:42;;;;;;;27.05;5.13;;;9.20;99.90;;;;;;5034691;28;20060;-82
2022/01/03 07:05:13;;;;;;;28.85;5.60;;;9.20;99.90;;;;;;5031160;28;20118;-82
2022/01/03 07:07:39;;;;;;;35.28;5.22;;;9.20;99.90;;;;;;5014778;28;20038;-82
2022/01/03 07:10:06;;;;;;;23.75;5.18;;;9.30;99.90;;;;;;5034519;28;20046;-82
2022/01/03 07:12:32;;;;;;;34.75;5.53;;;9.30;99.90;;;;;;5034754;28;20099;-82
2022/01/03 07:20:10;;;;;;;29.60;5.38;;;9.30;99.90;;;;;;5035048;28;20132;-83
2022/01/03 07:22:40;;;;;;;34.17;5.22;;;9.20;99.90;;;;;;4986264;28;20432;-82
2022/01/03 07:25:09;;;;;;;29.98;5.55;;;9.30;99.90;;;;;;5018818;28;20037;-82
2022/01/03 07:27:36;;;;;;;27.38;5.05;;;9.30;99.90;;;;;;5012338;28;20065;-81
2022/01/03 07:30:04;;;;;;;32.50;5.32;;;9.30;99.90;;;;;;5015134;28;20096;-81
2022/01/03 07:32:30;;;;;;;31.52;5.25;;;9.30;99.90;;;;;;4966239;28;20128;-81
2022/01/03 07:34:55;;;;;;;33.85;5.65;;;9.30;99.90;;;;;;5015092;28;20073;-81
2022/01/03 07:37:21;;;;;;;32.10;5.97;;;9.30;99.90;;;;;;4998778;28;20042;-81
2022/01/03 07:39:48;;;;;;;31.50;5.18;;;9.20;99.90;;;;;;4966495;28;20042;-81
2022/01/03 07:42:13;;;;;;;35.92;6.43;;;9.20;99.90;;;;;;4973924;28;20077;-82
2022/01/03 07:44:39;;;;;;;32.63;6.18;;;9.30;99.90;;;;;;4980511;28;20076;-81
2022/01/03 07:47:06;;;;;;;38.58;6.22;;;9.30;99.90;;;;;;5007798;28;20056;-82
2022/01/03 07:49:32;;;;;;;30.50;6.15;;;9.30;99.90;;;;;;4981638;28;20430;-81
2022/01/03 07:51:58;;;;;;;37.05;6.43;;;9.50;99.90;;;;;;5025324;28;20116;-82
2022/01/03 07:54:24;;;;;;;33.72;5.93;;;9.40;99.90;;;;;;5021187;28;20057;-82
2022/01/03 07:56:50;;;;;;;31.13;5.55;;;9.40;99.90;;;;;;5024128;28;20045;-81
2022/01/03 07:59:16;;;;;;;35.78;5.80;;;9.40;99.90;;;;;;4976548;28;20515;-82
2022/01/03 08:01:41;;;;;;;30.65;5.43;;;9.50;99.90;;;;;;4983672;28;20084;-82
2022/01/03 08:04:08;;;;;;;35.20;6.38;;;9.50;99.90;;;;;;4993184;28;20037;-81
2022/01/03 08:06:34;;;;;;;24.98;4.88;;;9.50;99.90;;;;;;5011250;28;20181;-81
2022/01/03 08:08:59;;;;;;;32.60;5.80;;;9.50;99.90;;;;;;5015501;28;20128;-81
2022/01/03 08:11:26;;;;;;;31.92;5.55;;;9.50;99.90;;;;;;5012884;28;20540;-81
2022/01/03 08:13:53;;;;;;;29.88;5.22;;;9.50;99.90;;;;;;4988693;28;20038;-81
2022/01/03 08:16:19;;;;;;;35.28;5.55;;;9.50;99.90;;;;;;5029468;28;20044;-82
2022/01/03 08:18:45;;;;;;;34.78;5.82;;;9.50;99.90;;;;;;5014368;28;20046;-82
2022/01/03 08:21:11;;;;;;;30.40;5.60;;;9.50;99.90;;;;;;4973038;28;20059;-81
2022/01/03 08:23:36;;;;;;;29.20;5.18;;;9.50;99.90;;;;;;4981897;28;20048;-82
2022/01/03 08:26:02;;;;;;;29.98;5.93;;;9.60;99.90;;;;;;4993656;28;20563;-81
2022/01/03 08:28:28;;;;;;;29.05;5.85;;;9.60;99.90;;;;;;5012436;28;20071;-81
2022/01/03 08:30:54;;;;;;;32.20;5.18;;;9.60;99.90;;;;;;4998355;28;20088;-81
2022/01/03 08:33:19;;;;;;;31.00;6.03;;;9.60;99.90;;;;;;5004026;28;20041;-82
2022/01/03 08:35:45;;;;;;;28.77;5.75;;;9.70;99.90;;;;;;5006513;28;20489;-82
2022/01/03 08:38:11;;;;;;;27.70;4.43;;;9.60;99.90;;;;;;5007642;28;20164;-82
2022/01/03 08:40:36;;;;;;;29.13;4.78;;;9.70;99.90;;;;;;4982331;28;20045;-82
2022/01/03 08:43:02;;;;;;;26.52;4.55;;;9.80;99.90;;;;;;5023222;28;20493;-81
2022/01/03 08:45:28;;;;;;;30.38;5.60;;;9.90;99.90;;;;;;5003175;28;20041;-82
2022/01/03 08:47:54;;;;;;;28.25;5.22;;;9.90;99.90;;;;;;5033732;28;20050;-82
2022/01/03 08:50:20;;;;;;;28.92;5.20;;;9.90;99.90;;;;;;5002847;28;20037;-82
2022/01/03 08:52:46;;;;;;;30.60;5.35;;;9.90;99.90;;;;;;4987628;28;20095;-82
2022/01/03 08:55:12;;;;;;;32.65;5.63;;;9.80;99.90;;;;;;5002559;28;20047;-81
2022/01/03 08:57:39;;;;;;;29.50;5.15;;;9.90;99.90;;;;;;5013122;28;20045;-82
2022/01/03 09:00:06;;;;;;;26.75;4.75;;;9.90;99.90;;;;;;5010893;28;20612;-82
2022/01/03 09:02:32;;;;;;;27.10;5.07;;;10.00;99.90;;;;;;5001096;28;20073;-82
2022/01/03 09:04:58;;;;;;;26.27;5.13;;;10.00;99.90;;;;;;4989919;28;20152;-82
2022/01/03 09:07:23;;;;;;;30.80;5.03;;;10.00;99.90;;;;;;5008021;28;20538;-82
2022/01/03 09:09:49;;;;;;;28.77;5.35;;;10.00;99.90;;;;;;4997722;28;20120;-82
2022/01/03 09:12:15;;;;;;;25.30;5.05;;;10.00;99.90;;;;;;5009212;28;20091;-82
2022/01/03 09:14:41;;;;;;;27.75;5.10;;;10.10;99.90;;;;;;5030166;28;20048;-82
2022/01/03 09:17:07;;;;;;;30.92;5.80;;;10.00;99.90;;;;;;5005187;28;20049;-82
2022/01/03 09:19:35;;;;;;;29.88;4.55;;;10.10;99.90;;;;;;4992181;28;20432;-82
2022/01/03 09:22:15;;;;;;;25.65;4.68;;;10.10;99.90;;;;;;5017094;28;20037;-81
2022/01/03 09:28:48;;;;;;;32.35;5.35;;;10.20;99.90;;;;;;5026858;28;20068;-82
2022/01/03 09:30:24;;;;;;;27.15;5.00;;;10.30;99.90;;;;;;5011439;28;20045;-82
2022/01/03 09:32:50;;;;;;;25.65;4.90;;;10.20;99.90;;;;;;5009826;28;20049;-82
2022/01/03 09:35:16;;;;;;;27.77;5.57;;;10.20;99.90;;;;;;5002558;28;20084;-82
2022/01/03 09:37:42;;;;;;;28.40;4.95;;;10.20;99.90;;;;;;4996562;28;20100;-81
2022/01/03 09:40:09;;;;;;;27.83;5.15;;;10.20;99.90;;;;;;5010653;28;20386;-82
2022/01/03 09:42:35;;;;;;;25.58;4.90;;;10.20;99.90;;;;;;5013538;28;20044;-82
2022/01/03 09:45:07;;;;;;;28.27;5.43;;;10.20;99.90;;;;;;5010069;28;20057;-82
2022/01/03 09:47:34;;;;;;;23.67;4.78;;;10.20;99.90;;;;;;5009483;28;20108;-81
2022/01/03 09:50:00;;;;;;;28.08;5.10;;;10.30;99.90;;;;;;5014673;28;20492;-81
2022/01/03 09:52:27;;;;;;;25.38;4.78;;;10.30;99.90;;;;;;5010424;28;20401;-82
2022/01/03 09:54:55;;;;;;;26.92;4.72;;;10.30;99.90;;;;;;5002907;28;20049;-82
2022/01/03 09:57:22;;;;;;;27.67;4.65;;;10.30;99.90;;;;;;5009396;28;20541;-81
2022/01/03 09:59:48;;;;;;;24.80;4.80;;;10.40;99.90;;;;;;4997828;28;20045;-82
2022/01/03 10:02:15;;;;;;;33.67;5.22;;;10.50;99.90;;;;;;4989381;28;20138;-82
2022/01/03 10:04:42;;;;;;;28.63;5.45;;;10.50;99.90;;;;;;4994588;28;20049;-82
2022/01/03 10:07:14;;;;;;;22.27;5.15;;;10.50;99.90;;;;;;4993271;28;20503;-82
2022/01/03 10:09:40;;;;;;;23.13;4.88;;;10.50;99.90;;;;;;5012390;28;20041;-82
2022/01/03 10:12:10;;;;;;;20.33;4.22;;;10.50;99.90;;;;;;4993068;28;20041;-82
2022/01/03 10:14:35;;;;;;;26.38;5.38;;;10.50;99.90;;;;;;4993534;28;20037;-82
2022/01/03 10:17:01;;;;;;;26.10;4.60;;;10.50;99.90;;;;;;5011241;28;20311;-83
2022/01/03 10:19:27;;;;;;;22.92;4.80;;;10.50;99.90;;;;;;5006987;28;20042;-82
2022/01/03 10:21:53;;;;;;;23.73;4.47;;;10.50;99.90;;;;;;4992783;28;20076;-82
2022/01/03 10:24:33;;;;;;;25.98;4.85;;;10.50;99.90;;;;;;4993987;28;20042;-81
2022/01/03 10:26:59;;;;;;;23.02;4.30;;;10.60;99.90;;;;;;4984129;28;20046;-82
2022/01/03 10:29:27;;;;;;;22.65;4.60;;;10.60;99.90;;;;;;5030480;28;20053;-82
2022/01/03 10:31:59;;;;;;;22.35;4.68;;;10.70;99.90;;;;;;5026402;28;20041;-82
2022/01/03 10:34:25;;;;;;;26.13;4.72;;;10.70;99.90;;;;;;5007274;28;20042;-82
2022/01/03 10:36:54;;;;;;;24.90;4.60;;;10.70;99.90;;;;;;5027896;28;20048;-82
2022/01/03 10:39:21;;;;;;;23.33;4.43;;;10.70;99.90;;;;;;5001378;28;20171;-82
2022/01/03 10:41:49;;;;;;;26.60;5.20;;;10.60;99.90;;;;;;5028376;28;20578;-82
2022/01/03 10:44:38;;;;;;;24.00;4.55;;;10.60;99.90;;;;;;5028428;28;20507;-82
2022/01/03 10:47:07;;;;;;;31.52;4.88;;;10.60;99.90;;;;;;5015933;28;20033;-82
2022/01/03 10:49:34;;;;;;;24.25;4.65;;;10.60;99.90;;;;;;5010976;28;20086;-83
2022/01/03 10:52:22;;;;;;;25.73;4.63;;;10.60;99.90;;;;;;5011559;28;20041;-82
2022/01/03 10:55:33;;;;;;;20.88;4.70;;;10.60;99.90;;;;;;5005775;28;20067;-82
2022/01/03 10:58:06;;;;;;;24.33;4.72;;;10.70;99.90;;;;;;4960897;28;20042;-82
2022/01/03 11:00:35;;;;;;;24.30;4.25;;;10.70;99.90;;;;;;4976894;28;20546;-82
2022/01/03 11:03:39;;;;;;;28.83;4.85;;;10.80;99.90;;;;;;5001294;28;20060;-82
2022/01/03 11:06:21;;;;;;;23.30;4.57;;;10.90;99.90;;;;;;5038525;28;20500;-82
2022/01/03 11:11:38;;;;;;;22.02;4.78;;;10.90;99.90;;;;;;5049978;28;20446;-82
2022/01/03 11:14:05;;;;;;;26.33;4.88;;;10.90;99.90;;;;;;5033993;28;20033;-82
2022/01/03 11:16:42;;;;;;;27.58;5.20;;;10.80;99.90;;;;;;5018631;28;20151;-82
2022/01/03 11:19:09;;;;;;;26.27;4.90;;;10.90;99.90;;;;;;5053683;28;20464;-82
2022/01/03 11:21:44;;;;;;;25.58;4.82;;;10.90;99.90;;;;;;5052469;28;20115;-81
2022/01/03 11:24:11;;;;;;;26.67;4.70;;;10.80;99.90;;;;;;5032019;28;20453;-82
2022/01/03 11:26:51;;;;;;;24.63;4.50;;;10.80;99.90;;;;;;5033931;28;20048;-82
2022/01/03 11:29:17;;;;;;;22.88;4.70;;;10.80;99.90;;;;;;5036826;28;20085;-82
2022/01/03 11:31:44;;;;;;;26.95;4.25;;;10.70;99.90;;;;;;4998915;28;20041;-82
2022/01/03 11:34:12;;;;;;;22.67;4.70;;;10.70;99.90;;;;;;5035422;28;20052;-82
2022/01/03 11:36:39;;;;;;;25.40;4.88;;;10.70;99.90;;;;;;5015016;28;20489;-81
2022/01/03 11:39:11;;;;;;;22.25;4.55;;;10.70;99.90;;;;;;5010590;28;20493;-81
2022/01/03 11:41:42;;;;;;;24.23;4.73;;;10.70;99.90;;;;;;5009760;28;20044;-82
2022/01/03 11:44:12;;;;;;;22.45;4.30;;;10.60;99.90;;;;;;5010693;28;20773;-82
2022/01/03 11:46:45;;;;;;;23.35;4.50;;;10.70;99.90;;;;;;5009357;28;20711;-82
2022/01/03 11:49:12;;;;;;;21.92;4.53;;;10.70;99.90;;;;;;5009095;28;20046;-82
2022/01/03 11:51:39;;;;;;;27.17;4.65;;;10.70;99.90;;;;;;5031474;28;20045;-82
2022/01/03 11:54:06;;;;;;;27.92;5.20;;;10.80;99.90;;;;;;5026706;28;20499;-82
2022/01/03 11:56:36;;;;;;;27.23;4.80;;;10.80;99.90;;;;;;5018022;28;20041;-81
2022/01/03 12:04:38;;;;;;;23.40;4.65;;;10.90;99.90;;;;;;5015330;28;20068;-82
2022/01/03 12:07:13;;;;;;;22.17;4.43;;;10.90;99.90;;;;;;4995527;28;20175;-82
2022/01/03 12:09:47;;;;;;;22.30;4.70;;;10.90;99.90;;;;;;5012129;28;20044;-83
2022/01/03 12:12:34;;;;;;;26.27;4.45;;;10.90;99.90;;;;;;5009405;28;20037;-81
2022/01/03 12:15:02;;;;;;;26.10;5.05;;;10.90;99.90;;;;;;5010041;28;20124;-83
2022/01/03 12:17:48;;;;;;;21.38;5.15;;;10.80;99.90;;;;;;4995249;28;20496;-82
2022/01/03 12:20:15;;;;;;;25.63;4.50;;;10.80;99.90;;;;;;5020171;28;20053;-82
2022/01/03 12:22:50;;;;;;;26.15;4.72;;;10.80;99.90;;;;;;5023068;28;20130;-82
2022/01/03 12:25:26;;;;;;;21.60;4.30;;;10.80;99.90;;;;;;5017142;28;20052;-82
2022/01/03 12:28:06;;;;;;;31.30;5.38;;;10.80;99.90;;;;;;5018126;28;20514;-82
2022/01/03 12:30:53;;;;;;;26.13;4.72;;;10.80;99.90;;;;;;5037884;28;20075;-82
2022/01/03 12:33:19;;;;;;;24.17;4.47;;;10.90;99.90;;;;;;5058559;28;20497;-82
2022/01/03 12:35:47;;;;;;;24.38;5.05;;;10.90;99.90;;;;;;5048267;28;20072;-82
2022/01/03 12:38:20;;;;;;;24.90;4.70;;;10.90;99.90;;;;;;5035677;28;20098;-82
2022/01/03 12:40:47;;;;;;;28.63;4.97;;;10.90;99.90;;;;;;5033853;28;20098;-81
2022/01/03 12:43:15;;;;;;;25.08;4.90;;;10.90;99.90;;;;;;5032907;28;20099;-81
2022/01/03 12:45:42;;;;;;;24.10;5.18;;;11.00;99.90;;;;;;5016409;28;20044;-82
2022/01/03 12:48:11;;;;;;;23.80;4.90;;;10.90;99.90;;;;;;5031375;28;20060;-82
2022/01/03 12:50:52;;;;;;;25.45;4.78;;;10.90;99.90;;;;;;5020302;28;20045;-82
2022/01/03 12:53:26;;;;;;;21.27;4.55;;;10.90;99.90;;;;;;5022453;28;20033;-82
2022/01/03 12:56:01;;;;;;;24.90;4.50;;;10.90;99.90;;;;;;5050077;28;20032;-82
2022/01/03 12:58:26;;;;;;;25.27;4.70;;;10.90;99.90;;;;;;5046357;28;20045;-82
2022/01/03 13:01:20;;;;;;;22.10;4.80;;;10.80;99.90;;;;;;5019999;28;20389;-82
2022/01/03 13:04:13;;;;;;;29.35;5.22;;;10.80;99.90;;;;;;5039192;28;20044;-82
2022/01/03 13:06:42;;;;;;;25.23;4.53;;;10.90;99.90;;;;;;5029759;28;20053;-81